^^
Station Historical Data
Daily Summary for January 28, 2017 Units:  Metric    English   Both
« Previous Day
Next Day »
Daily Weekly Monthly Yearly Custom
  High: Low: Average:
Temperature: 31.3 °C 14.2 °C 21.3 °C
Dew Point: 9.6 °C -1.7 °C 5.8 °C
Humidity: 70% 13% 44%
Wind Speed: 17.7km/h 0km/h 8.5km/h
Wind Gust: 22.5km/h - -
Wind- - SSW
Pressure: 1013.4 hPa 1006.7 hPa -
Precipitation: 0 mm    
Historical Graphs
 
 
Tabular Data for January 28, 2017
Time Temperature Dew Point Pressure Wind Wind Speed Wind Gust Humidity Rainfall Rate (Hourly) solar Conditions
00:09 17.2 °C 9.4 °C 1013.4 hPa SSW 14.3 km/h 22.5 km/h 60% 0 mm 0.0 W/m2
00:14 17.2 °C 9.6 °C 1013.4 hPa SSW 14.3 km/h 19.3 km/h 61% 0 mm 0.0 W/m2
00:19 17.1 °C 9.5 °C 1013.4 hPa SSW 17.7 km/h 20.9 km/h 61% 0 mm 0.0 W/m2
00:24 17.1 °C 9.5 °C 1013.4 hPa SSW 17.7 km/h 20.9 km/h 61% 0 mm 0.0 W/m2
00:35 17 °C 9.4 °C 1013.1 hPa SSW 13 km/h 20.9 km/h 61% 0 mm 0.0 W/m2
00:55 16.7 °C 9.4 °C 1013.4 hPa SSW 16.3 km/h 17.7 km/h 62% 0 mm 0.0 W/m2
01:05 16.6 °C 9.3 °C 1013.4 hPa SSW 11.1 km/h 17.7 km/h 62% 0 mm 0.0 W/m2
01:10 16.6 °C 9.3 °C 1013.4 hPa SSW 13 km/h 16.1 km/h 62% 0 mm 0.0 W/m2
01:19 16.5 °C 9.2 °C 1013.4 hPa SSW 11.1 km/h 14.5 km/h 62% 0 mm 0.0 W/m2
01:29 16.4 °C 9.1 °C 1013.4 hPa SSW 14.3 km/h 14.5 km/h 62% 0 mm 0.0 W/m2
01:45 16.2 °C 9.1 °C 1013.4 hPa SSW 11.1 km/h 14.5 km/h 63% 0 mm 0.0 W/m2
01:50 16.2 °C 9.1 °C 1013.1 hPa SSW 16.3 km/h 16.3 km/h 63% 0 mm 0.0 W/m2
01:55 16.2 °C 9.1 °C 1013.1 hPa SSW 13 km/h 16.1 km/h 63% 0 mm 0.0 W/m2
02:00 16.2 °C 9.1 °C 1013.1 hPa SSW 14.3 km/h 17.7 km/h 63% 0 mm 0.0 W/m2
02:05 16.1 °C 9.1 °C 1013.1 hPa SSW 14.3 km/h 17.7 km/h 63% 0 mm 0.0 W/m2
02:10 16.1 °C 9.1 °C 1012.8 hPa SSW 13 km/h 17.7 km/h 63% 0 mm 0.0 W/m2
02:20 16 °C 9 °C 1013.1 hPa SSW 13 km/h 16.1 km/h 63% 0 mm 0.0 W/m2
02:25 15.9 °C 8.9 °C 1012.8 hPa SSW 14.3 km/h 16.1 km/h 63% 0 mm 0.0 W/m2
02:30 15.9 °C 9.1 °C 1012.8 hPa SSW 13 km/h 16.1 km/h 64% 0 mm 0.0 W/m2
02:35 15.9 °C 9.1 °C 1012.8 hPa SSW 14.3 km/h 16.1 km/h 64% 0 mm 0.0 W/m2
02:40 15.8 °C 9 °C 1012.8 hPa SSW 9.7 km/h 19.3 km/h 64% 0 mm 0.0 W/m2
02:45 15.8 °C 9 °C 1012.8 hPa SSW 13 km/h 16.1 km/h 64% 0 mm 0.0 W/m2
02:50 15.7 °C 9.1 °C 1012.8 hPa SSW 11.1 km/h 12.9 km/h 65% 0 mm 0.0 W/m2
02:55 15.7 °C 9.1 °C 1012.8 hPa SSW 9.7 km/h 12.9 km/h 65% 0 mm 0.0 W/m2
03:01 15.7 °C 8.9 °C 1012.8 hPa SSW 7.9 km/h 17.7 km/h 64% 0 mm 0.0 W/m2
03:06 15.7 °C 9.1 °C 1012.4 hPa SSW 11.1 km/h 16.1 km/h 65% 0 mm 0.0 W/m2
03:16 15.6 °C 9 °C 1012.4 hPa SSW 11.1 km/h 14.5 km/h 65% 0 mm 0.0 W/m2
03:31 15.4 °C 9.1 °C 1012.4 hPa SSW 7.9 km/h 11.3 km/h 66% 0 mm 0.0 W/m2
03:41 15.3 °C 9 °C 1012.1 hPa SSW 6.4 km/h 8 km/h 66% 0 mm 0.0 W/m2
03:46 15.2 °C 9.1 °C 1012.1 hPa SSW 7.9 km/h 9.7 km/h 67% 0 mm 0.0 W/m2
03:51 15.1 °C 9 °C 1012.1 hPa SSW 7.9 km/h 11.3 km/h 67% 0 mm 0.0 W/m2
04:02 15 °C 8.9 °C 1011.7 hPa SSW 6.4 km/h 11.3 km/h 67% 0 mm 0.0 W/m2
04:22 14.8 °C 9 °C 1011.7 hPa SSW 7.9 km/h 8 km/h 68% 0 mm 0.0 W/m2
04:37 14.6 °C 9 °C 1011.7 hPa SSW 9.7 km/h 12.9 km/h 69% 0 mm 0.0 W/m2
04:42 14.6 °C 9 °C 1011.7 hPa SSW 7.9 km/h 11.3 km/h 69% 0 mm 0.0 W/m2
04:47 14.6 °C 9.2 °C 1011.7 hPa SSW 9.7 km/h 11.3 km/h 70% 0 mm 0.0 W/m2
04:57 14.6 °C 9.2 °C 1012.1 hPa SSW 7.9 km/h 11.3 km/h 70% 0 mm 0.0 W/m2
05:02 14.6 °C 9.2 °C 1012.1 hPa SSW 4.7 km/h 8 km/h 70% 0 mm 0.0 W/m2
05:07 14.6 °C 9.2 °C 1012.1 hPa SSW 7.9 km/h 9.7 km/h 70% 0 mm 0.0 W/m2
05:17 14.4 °C 9 °C 1012.1 hPa SSW 6.4 km/h 8 km/h 70% 0 mm 0.0 W/m2
05:22 14.4 °C 9 °C 1012.4 hPa SSW 7.9 km/h 9.7 km/h 70% 0 mm 0.0 W/m2
05:32 14.4 °C 9 °C 1012.4 hPa SSW 9.7 km/h 11.3 km/h 70% 0 mm 0.0 W/m2
05:37 14.5 °C 9.1 °C 1012.4 hPa SSW 9.7 km/h 12.9 km/h 70% 0 mm 0.0 W/m2
05:42 14.5 °C 9.1 °C 1012.4 hPa SSW 11.1 km/h 14.5 km/h 70% 0 mm 0.0 W/m2
05:48 14.5 °C 8.9 °C 1012.4 hPa SSW 11.1 km/h 14.5 km/h 69% 0 mm 0.0 W/m2
05:58 14.3 °C 8.9 °C 1012.4 hPa SSW 9.7 km/h 14.5 km/h 70% 0 mm 0.0 W/m2
06:04 14.3 °C 8.9 °C 1012.8 hPa SSW 7.9 km/h 14.5 km/h 70% 0 mm 0.0 W/m2
06:10 14.3 °C 8.7 °C 1012.4 hPa SSW 13 km/h 14.5 km/h 69% 0 mm 0.0 W/m2
06:22 14.3 °C 8.7 °C 1012.8 hPa SSW 11.1 km/h 17.7 km/h 69% 0 mm 0.0 W/m2
06:33 14.2 °C 8.6 °C 1012.8 hPa SSW 11.1 km/h 11.3 km/h 69% 0 mm 11.0 W/m2
06:48 14.4 °C 8.8 °C 1012.8 hPa SSW 7.9 km/h 11.3 km/h 69% 0 mm 23.0 W/m2
06:57 14.8 °C 9 °C 1012.8 hPa SSW 7.9 km/h 12.9 km/h 68% 0 mm 63.0 W/m2
07:18 15.2 °C 8.9 °C 1012.8 hPa SSW 9.7 km/h 12.9 km/h 66% 0 mm 121.0 W/m2
07:30 15.6 °C 8.8 °C 1012.8 hPa SSW 13 km/h 16.1 km/h 64% 0 mm 192.0 W/m2
07:37 15.8 °C 8.5 °C 1012.8 hPa SSW 16.3 km/h 17.7 km/h 62% 0 mm 236.0 W/m2
07:45 16.1 °C 8.6 °C 1012.8 hPa SSW 11.1 km/h 16.1 km/h 61% 0 mm 255.0 W/m2
07:50 16.2 °C 8.4 °C 1012.8 hPa SSW 14.3 km/h 16.1 km/h 60% 0 mm 274.0 W/m2
07:59 16.7 °C 8.4 °C 1012.8 hPa SSW 11.1 km/h 16.1 km/h 58% 0 mm 313.0 W/m2
08:05 16.8 °C 8.5 °C 1012.8 hPa SSW 9.7 km/h 12.9 km/h 58% 0 mm 330.0 W/m2
08:11 16.9 °C 8.3 °C 1012.8 hPa SSW 7.9 km/h 14.5 km/h 57% 0 mm 350.0 W/m2
08:21 17.1 °C 8 °C 1012.8 hPa SSW 7.9 km/h 12.9 km/h 55% 0 mm 388.0 W/m2
08:31 17.4 °C 8 °C 1012.8 hPa SW 13 km/h 14.5 km/h 54% 0 mm 424.0 W/m2
12:05 25.7 °C 3.6 °C 1011.7 hPa Calm     24% 0 mm 979.0 W/m2
12:10 25.9 °C 3.8 °C 1011.7 hPa SSW 11.1 km/h 11.3 km/h 24% 0 mm 984.0 W/m2
12:19 26.1 °C 4 °C 1011.7 hPa SW 1.4 km/h 11.3 km/h 24% 0 mm 988.0 W/m2
12:29 26.3 °C 3.5 °C 1011.4 hPa WNW 11.1 km/h 11.3 km/h 23% 0 mm 997.0 W/m2
12:35 26.2 °C 4 °C 1011.4 hPa Calm     24% 0 mm 997.0 W/m2
12:40 26.4 °C 4.2 °C 1011.4 hPa NW 6.4 km/h 19.3 km/h 24% 0 mm 998.0 W/m2
12:45 26.9 °C 4 °C 1011.4 hPa Calm   6.4 km/h 23% 0 mm 998.0 W/m2
12:50 27 °C 4.1 °C 1011.1 hPa Calm     23% 0 mm 1000.0 W/m2
12:55 27.3 °C 4.3 °C 1011.1 hPa NNW 1.4 km/h 12.9 km/h 23% 0 mm 1005.0 W/m2
13:05 27.3 °C 4.3 °C 1011.1 hPa Calm     23% 0 mm 1002.0 W/m2
13:11 27.2 °C 4.3 °C 1011.1 hPa NW 9.7 km/h 17.7 km/h 23% 0 mm 1002.0 W/m2
13:17 27.1 °C 4.2 °C 1010.7 hPa Calm   9.7 km/h 23% 0 mm 972.0 W/m2
13:26 27.7 °C 4.7 °C 1010.7 hPa Calm   11.3 km/h 23% 0 mm 995.0 W/m2
13:32 27.9 °C 5.5 °C 1010.7 hPa Calm   9.7 km/h 24% 0 mm 995.0 W/m2
13:39 28.2 °C 4.5 °C 1010.7 hPa NNW 7.9 km/h 17.7 km/h 22% 0 mm 991.0 W/m2
13:50 28.4 °C 4.6 °C 1010.4 hPa NNW 1.4 km/h 11.3 km/h 22% 0 mm 990.0 W/m2
13:54 28.3 °C 4.5 °C 1010.4 hPa NNW 6.4 km/h 9.7 km/h 22% 0 mm 981.0 W/m2
14:09 29.2 °C 3.9 °C 1010 hPa NNW 13 km/h 14.5 km/h 20% 0 mm 972.0 W/m2
14:32 29.2 °C 3.2 °C 1009.7 hPa NNW 9.7 km/h 17.7 km/h 19% 0 mm 947.0 W/m2
14:40 29.6 °C 3.5 °C 1009.4 hPa Calm   6.4 km/h 19% 0 mm 918.0 W/m2
15:01 29.6 °C 4.3 °C 1009 hPa Calm     20% 0 mm 891.0 W/m2
15:10 30.1 °C 3.9 °C 1009 hPa NNW 7.9 km/h 11.3 km/h 19% 0 mm 861.0 W/m2
15:31 29.9 °C 3 °C 1008.7 hPa Calm   1.6 km/h 18% 0 mm 823.0 W/m2
15:39 30.3 °C 2.5 °C 1008.4 hPa Calm   1.6 km/h 17% 0 mm 798.0 W/m2
15:48 30.3 °C 2.5 °C 1008.4 hPa NNW 1.4 km/h 9.7 km/h 17% 0 mm 772.0 W/m2
17:17 31.1 °C 0.5 °C 1007 hPa North 7.9 km/h 11.3 km/h 14% 0 mm 483.0 W/m2
17:39 31.1 °C 0.5 °C 1007 hPa Calm     14% 0 mm 427.0 W/m2
17:49 31.1 °C 0.5 °C 1006.7 hPa Calm     14% 0 mm 366.0 W/m2
18:04 31.1 °C -0.6 °C 1006.7 hPa Calm   9.7 km/h 13% 0 mm 329.0 W/m2
18:09 31.2 °C -0.5 °C 1006.7 hPa Calm     13% 0 mm 294.0 W/m2
18:19 31.2 °C -0.5 °C 1006.7 hPa Calm   8 km/h 13% 0 mm 257.0 W/m2
18:30 31.3 °C -0.4 °C 1006.7 hPa Calm     13% 0 mm 207.0 W/m2
18:45 31.3 °C 0.6 °C 1006.7 hPa North 9.7 km/h 11.3 km/h 14% 0 mm 139.0 W/m2
19:00 31 °C 0.4 °C 1006.7 hPa Calm   8 km/h 14% 0 mm 77.0 W/m2
19:15 30.7 °C -0.9 °C 1006.7 hPa ENE 16.3 km/h 17.7 km/h 13% 0 mm 26.0 W/m2
19:37 30.3 °C -0.2 °C 1006.7 hPa Calm   9.7 km/h 14% 0 mm 11.0 W/m2
19:50 29.7 °C -1.7 °C 1007 hPa ENE 11.1 km/h 14.5 km/h 13% 0 mm 0.0 W/m2
20:00 29.3 °C -1 °C 1007 hPa ENE 7.9 km/h 11.3 km/h 14% 0 mm 0.0 W/m2
20:06 29 °C -0.3 °C 1007 hPa ENE 4.7 km/h 8 km/h 15% 0 mm 0.0 W/m2
20:26 28.6 °C -1.5 °C 1007.3 hPa ENE 11.1 km/h 12.9 km/h 14% 0 mm 0.0 W/m2
20:37 28.5 °C -1.6 °C 1007.3 hPa ENE 14.3 km/h 16.1 km/h 14% 0 mm 0.0 W/m2
20:46 28.2 °C -0.9 °C 1007.3 hPa ENE 7.9 km/h 12.9 km/h 15% 0 mm 0.0 W/m2
20:56 28.1 °C -1 °C 1007.7 hPa East 13 km/h 14.5 km/h 15% 0 mm 0.0 W/m2
21:05 27.7 °C -0.4 °C 1007.7 hPa East 9.7 km/h 11.3 km/h 16% 0 mm 0.0 W/m2
21:15 27.3 °C -0.7 °C 1007.7 hPa East 9.7 km/h 14.5 km/h 16% 0 mm 0.0 W/m2
21:25 27.2 °C -0.8 °C 1008 hPa East 11.1 km/h 12.9 km/h 16% 0 mm 0.0 W/m2
21:35 27 °C -1 °C 1008 hPa East 13 km/h 14.5 km/h 16% 0 mm 0.0 W/m2
21:45 26.9 °C -0.2 °C 1008 hPa East 13 km/h 14.5 km/h 17% 0 mm 0.0 W/m2
Canyon Roadhouse, Fishriver Canyon, Namibia
Compliments of Weather Underground - 2.25 mb